sensor_id;sensor_type;location;lat;lon;timestamp;temperature;humidity
9901;DHT22;4989;48.772;9.154;2023-05-07T00:02:41;19.70;68.20
9901;DHT22;4989;48.772;9.154;2023-05-07T00:07:43;19.60;68.50
9901;DHT22;4989;48.772;9.154;2023-05-07T00:12:46;19.50;69.30
9901;DHT22;4989;48.772;9.154;2023-05-07T00:17:48;19.60;68.90
9901;DHT22;4989;48.772;9.154;2023-05-07T00:22:50;19.40;70.00
9901;DHT22;4989;48.772;9.154;2023-05-07T00:27:53;19.70;69.50
9901;DHT22;4989;48.772;9.154;2023-05-07T00:32:55;20.00;69.10
9901;DHT22;4989;48.772;9.154;2023-05-07T00:37:57;19.90;69.00
9901;DHT22;4989;48.772;9.154;2023-05-07T00:43:00;19.80;69.30
9901;DHT22;4989;48.772;9.154;2023-05-07T00:48:02;19.80;69.70
9901;DHT22;4989;48.772;9.154;2023-05-07T00:53:06;19.70;69.60
9901;DHT22;4989;48.772;9.154;2023-05-07T00:58:09;19.80;69.20
9901;DHT22;4989;48.772;9.154;2023-05-07T01:03:11;19.60;70.60
9901;DHT22;4989;48.772;9.154;2023-05-07T01:08:14;19.80;69.80
9901;DHT22;4989;48.772;9.154;2023-05-07T01:13:19;19.70;70.50
9901;DHT22;4989;48.772;9.154;2023-05-07T01:18:22;19.40;70.80
9901;DHT22;4989;48.772;9.154;2023-05-07T01:23:25;19.40;71.50
9901;DHT22;4989;48.772;9.154;2023-05-07T01:28:29;19.60;70.80
9901;DHT22;4989;48.772;9.154;2023-05-07T01:33:36;19.70;70.40
9901;DHT22;4989;48.772;9.154;2023-05-07T01:38:41;19.60;70.50
9901;DHT22;4989;48.772;9.154;2023-05-07T01:43:45;19.40;71.00
9901;DHT22;4989;48.772;9.154;2023-05-07T01:48:50;19.20;72.60
9901;DHT22;4989;48.772;9.154;2023-05-07T01:53:53;19.40;71.50
9901;DHT22;4989;48.772;9.154;2023-05-07T01:58:55;19.60;71.00
9901;DHT22;4989;48.772;9.154;2023-05-07T02:03:57;19.40;71.60
9901;DHT22;4989;48.772;9.154;2023-05-07T02:09:03;19.60;71.40
9901;DHT22;4989;48.772;9.154;2023-05-07T02:14:05;19.60;70.90
9901;DHT22;4989;48.772;9.154;2023-05-07T02:19:07;19.40;71.10
9901;DHT22;4989;48.772;9.154;2023-05-07T02:24:10;19.30;71.80
9901;DHT22;4989;48.772;9.154;2023-05-07T02:29:12;18.90;72.70
9901;DHT22;4989;48.772;9.154;2023-05-07T02:34:16;18.60;74.20
9901;DHT22;4989;48.772;9.154;2023-05-07T02:39:19;18.80;74.30
9901;DHT22;4989;48.772;9.154;2023-05-07T02:44:21;19.00;74.00
9901;DHT22;4989;48.772;9.154;2023-05-07T02:49:25;18.90;73.50
9901;DHT22;4989;48.772;9.154;2023-05-07T02:54:28;19.10;73.40
9901;DHT22;4989;48.772;9.154;2023-05-07T02:59:30;19.00;73.10
9901;DHT22;4989;48.772;9.154;2023-05-07T03:04:32;18.20;75.00
9901;DHT22;4989;48.772;9.154;2023-05-07T03:09:35;18.00;76.20
9901;DHT22;4989;48.772;9.154;2023-05-07T03:14:37;18.50;75.10
9901;DHT22;4989;48.772;9.154;2023-05-07T03:19:40;18.80;75.50
9901;DHT22;4989;48.772;9.154;2023-05-07T03:24:42;18.70;74.40
9901;DHT22;4989;48.772;9.154;2023-05-07T03:29:44;18.70;74.90
9901;DHT22;4989;48.772;9.154;2023-05-07T03:34:46;18.70;73.50
9901;DHT22;4989;48.772;9.154;2023-05-07T03:39:49;18.70;73.50
9901;DHT22;4989;48.772;9.154;2023-05-07T03:44:52;18.50;74.10
9901;DHT22;4989;48.772;9.154;2023-05-07T03:49:55;18.50;75.20
9901;DHT22;4989;48.772;9.154;2023-05-07T03:54:59;18.40;74.90
9901;DHT22;4989;48.772;9.154;2023-05-07T04:00:02;18.60;74.50
9901;DHT22;4989;48.772;9.154;2023-05-07T04:05:10;18.50;75.30
9901;DHT22;4989;48.772;9.154;2023-05-07T04:10:14;18.50;74.20
9901;DHT22;4989;48.772;9.154;2023-05-07T04:15:19;17.90;75.20
9901;DHT22;4989;48.772;9.154;2023-05-07T04:20:21;18.00;76.00
9901;DHT22;4989;48.772;9.154;2023-05-07T04:25:30;18.60;75.60
9901;DHT22;4989;48.772;9.154;2023-05-07T04:30:41;18.60;74.80
9901;DHT22;4989;48.772;9.154;2023-05-07T04:35:45;18.60;74.40
9901;DHT22;4989;48.772;9.154;2023-05-07T04:40:48;18.50;74.60
9901;DHT22;4989;48.772;9.154;2023-05-07T04:45:55;17.70;77.20
9901;DHT22;4989;48.772;9.154;2023-05-07T04:51:00;18.10;77.10
9901;DHT22;4989;48.772;9.154;2023-05-07T04:56:02;18.40;76.00
9901;DHT22;4989;48.772;9.154;2023-05-07T05:01:12;18.70;77.20
9901;DHT22;4989;48.772;9.154;2023-05-07T05:06:15;18.80;74.70
9901;DHT22;4989;48.772;9.154;2023-05-07T05:11:17;18.60;75.30
9901;DHT22;4989;48.772;9.154;2023-05-07T05:16:20;18.10;76.00
9901;DHT22;4989;48.772;9.154;2023-05-07T05:21:23;17.40;78.60
9901;DHT22;4989;48.772;9.154;2023-05-07T05:26:29;17.70;79.50
9901;DHT22;4989;48.772;9.154;2023-05-07T05:31:32;18.30;77.70
9901;DHT22;4989;48.772;9.154;2023-05-07T05:36:35;18.00;79.20
9901;DHT22;4989;48.772;9.154;2023-05-07T05:41:38;18.40;77.70
9901;DHT22;4989;48.772;9.154;2023-05-07T05:46:42;19.00;78.00
9901;DHT22;4989;48.772;9.154;2023-05-07T05:51:44;19.30;75.30
9901;DHT22;4989;48.772;9.154;2023-05-07T05:56:48;19.30;75.00
9901;DHT22;4989;48.772;9.154;2023-05-07T06:01:51;19.30;74.40
9901;DHT22;4989;48.772;9.154;2023-05-07T06:06:54;19.50;75.90
9901;DHT22;4989;48.772;9.154;2023-05-07T06:11:57;19.70;73.60
9901;DHT22;4989;48.772;9.154;2023-05-07T06:17:03;19.80;73.60
9901;DHT22;4989;48.772;9.154;2023-05-07T06:22:07;20.00;73.20
9901;DHT22;4989;48.772;9.154;2023-05-07T06:27:10;20.10;74.00
9901;DHT22;4989;48.772;9.154;2023-05-07T06:32:13;20.20;73.70
9901;DHT22;4989;48.772;9.154;2023-05-07T06:37:18;20.20;73.40
9901;DHT22;4989;48.772;9.154;2023-05-07T06:42:29;20.30;73.70
9901;DHT22;4989;48.772;9.154;2023-05-07T06:47:34;20.30;71.60
9901;DHT22;4989;48.772;9.154;2023-05-07T06:52:37;20.10;71.90
9901;DHT22;4989;48.772;9.154;2023-05-07T06:57:40;20.50;72.80
9901;DHT22;4989;48.772;9.154;2023-05-07T07:02:42;20.90;72.10
9901;DHT22;4989;48.772;9.154;2023-05-07T07:07:47;21.30;70.20
9901;DHT22;4989;48.772;9.154;2023-05-07T07:12:55;21.70;71.00
9901;DHT22;4989;48.772;9.154;2023-05-07T07:17:57;21.80;71.00
9901;DHT22;4989;48.772;9.154;2023-05-07T07:23:00;22.00;68.00
9901;DHT22;4989;48.772;9.154;2023-05-07T07:28:02;21.90;70.00
9901;DHT22;4989;48.772;9.154;2023-05-07T07:33:05;22.20;69.20
9901;DHT22;4989;48.772;9.154;2023-05-07T07:38:10;22.60;67.50
9901;DHT22;4989;48.772;9.154;2023-05-07T07:49:41;23.40;67.60
9901;DHT22;4989;48.772;9.154;2023-05-07T07:54:45;23.40;63.90
9901;DHT22;4989;48.772;9.154;2023-05-07T07:59:48;23.40;66.30
9901;DHT22;4989;48.772;9.154;2023-05-07T08:04:53;23.60;66.80
9901;DHT22;4989;48.772;9.154;2023-05-07T08:09:55;23.60;66.30
9901;DHT22;4989;48.772;9.154;2023-05-07T08:14:59;23.70;64.50
9901;DHT22;4989;48.772;9.154;2023-05-07T08:20:01;23.70;65.90
9901;DHT22;4989;48.772;9.154;2023-05-07T08:25:04;23.90;64.80
9901;DHT22;4989;48.772;9.154;2023-05-07T08:30:08;24.50;64.50
9901;DHT22;4989;48.772;9.154;2023-05-07T08:35:11;25.10;64.80
9901;DHT22;4989;48.772;9.154;2023-05-07T08:40:14;25.00;62.20
9901;DHT22;4989;48.772;9.154;2023-05-07T08:45:19;25.00;62.10
9901;DHT22;4989;48.772;9.154;2023-05-07T08:50:25;24.20;62.10
9901;DHT22;4989;48.772;9.154;2023-05-07T08:55:28;24.40;61.80
9901;DHT22;4989;48.772;9.154;2023-05-07T09:00:32;25.40;61.40
9901;DHT22;4989;48.772;9.154;2023-05-07T09:05:36;25.90;59.50
9901;DHT22;4989;48.772;9.154;2023-05-07T09:10:41;26.00;57.60
9901;DHT22;4989;48.772;9.154;2023-05-07T09:15:44;25.90;58.20
9901;DHT22;4989;48.772;9.154;2023-05-07T09:20:47;26.30;58.20
9901;DHT22;4989;48.772;9.154;2023-05-07T09:26:00;26.90;57.30
9901;DHT22;4989;48.772;9.154;2023-05-07T09:31:07;27.20;56.50
9901;DHT22;4989;48.772;9.154;2023-05-07T09:36:10;27.30;54.10
9901;DHT22;4989;48.772;9.154;2023-05-07T09:41:15;26.90;55.40
9901;DHT22;4989;48.772;9.154;2023-05-07T09:46:30;27.50;54.30
9901;DHT22;4989;48.772;9.154;2023-05-07T09:51:45;27.70;53.50
9901;DHT22;4989;48.772;9.154;2023-05-07T09:56:52;27.90;53.20
9901;DHT22;4989;48.772;9.154;2023-05-07T10:02:00;27.90;53.00
9901;DHT22;4989;48.772;9.154;2023-05-07T10:07:08;28.60;51.80
9901;DHT22;4989;48.772;9.154;2023-05-07T10:12:12;28.60;52.20
9901;DHT22;4989;48.772;9.154;2023-05-07T10:17:16;28.10;52.50
9901;DHT22;4989;48.772;9.154;2023-05-07T10:22:21;28.70;52.00
9901;DHT22;4989;48.772;9.154;2023-05-07T10:27:24;28.80;52.60
9901;DHT22;4989;48.772;9.154;2023-05-07T10:32:51;29.70;49.80
9901;DHT22;4989;48.772;9.154;2023-05-07T10:38:03;28.50;50.90
9901;DHT22;4989;48.772;9.154;2023-05-07T10:43:10;30.00;50.50
9901;DHT22;4989;48.772;9.154;2023-05-07T10:48:18;30.80;48.70
9901;DHT22;4989;48.772;9.154;2023-05-07T10:53:28;29.80;50.10
9901;DHT22;4989;48.772;9.154;2023-05-07T10:58:50;29.70;49.80
9901;DHT22;4989;48.772;9.154;2023-05-07T11:04:14;31.50;49.20
9901;DHT22;4989;48.772;9.154;2023-05-07T11:09:54;31.30;48.70
9901;DHT22;4989;48.772;9.154;2023-05-07T11:15:36;29.30;47.80
9901;DHT22;4989;48.772;9.154;2023-05-07T11:21:05;28.70;50.60
9901;DHT22;4989;48.772;9.154;2023-05-07T11:26:17;28.00;55.20
9901;DHT22;4989;48.772;9.154;2023-05-07T11:31:22;27.20;56.00
9901;DHT22;4989;48.772;9.154;2023-05-07T11:36:30;27.00;57.00
9901;DHT22;4989;48.772;9.154;2023-05-07T11:41:36;26.70;53.00
9901;DHT22;4989;48.772;9.154;2023-05-07T11:46:43;26.50;54.30
9901;DHT22;4989;48.772;9.154;2023-05-07T11:51:47;26.40;54.50
9901;DHT22;4989;48.772;9.154;2023-05-07T11:56:49;26.30;59.10
9901;DHT22;4989;48.772;9.154;2023-05-07T12:01:51;25.90;59.20
9901;DHT22;4989;48.772;9.154;2023-05-07T12:06:54;25.60;60.90
9901;DHT22;4989;48.772;9.154;2023-05-07T12:12:05;25.30;62.60
9901;DHT22;4989;48.772;9.154;2023-05-07T12:17:08;24.70;64.40
9901;DHT22;4989;48.772;9.154;2023-05-07T12:22:12;23.60;65.60
9901;DHT22;4989;48.772;9.154;2023-05-07T12:27:16;22.90;69.90
9901;DHT22;4989;48.772;9.154;2023-05-07T12:32:21;22.90;72.20
9901;DHT22;4989;48.772;9.154;2023-05-07T12:37:24;22.10;80.00
9901;DHT22;4989;48.772;9.154;2023-05-07T12:42:35;22.10;83.70
9901;DHT22;4989;48.772;9.154;2023-05-07T12:47:38;20.50;91.00
9901;DHT22;4989;48.772;9.154;2023-05-07T12:52:41;19.90;93.80
9901;DHT22;4989;48.772;9.154;2023-05-07T12:57:49;19.20;99.90
9901;DHT22;4989;48.772;9.154;2023-05-07T13:02:54;19.00;99.90
9901;DHT22;4989;48.772;9.154;2023-05-07T13:07:57;18.80;99.90
9901;DHT22;4989;48.772;9.154;2023-05-07T13:12:59;18.50;99.90
9901;DHT22;4989;48.772;9.154;2023-05-07T13:18:01;18.60;99.90
9901;DHT22;4989;48.772;9.154;2023-05-07T13:23:04;18.50;99.90
9901;DHT22;4989;48.772;9.154;2023-05-07T13:28:06;18.30;99.90
9901;DHT22;4989;48.772;9.154;2023-05-07T13:33:12;18.30;99.90
9901;DHT22;4989;48.772;9.154;2023-05-07T13:38:15;18.10;99.90
9901;DHT22;4989;48.772;9.154;2023-05-07T13:43:18;18.30;99.90
9901;DHT22;4989;48.772;9.154;2023-05-07T13:48:20;18.90;99.90
9901;DHT22;4989;48.772;9.154;2023-05-07T13:53:23;19.30;99.50
9901;DHT22;4989;48.772;9.154;2023-05-07T13:58:25;19.60;96.70
9901;DHT22;4989;48.772;9.154;2023-05-07T14:03:27;19.50;97.40
9901;DHT22;4989;48.772;9.154;2023-05-07T14:08:29;18.40;98.30
9901;DHT22;4989;48.772;9.154;2023-05-07T14:13:32;17.40;99.10
9901;DHT22;4989;48.772;9.154;2023-05-07T14:18:36;17.00;99.90
9901;DHT22;4989;48.772;9.154;2023-05-07T14:23:40;16.70;99.90
9901;DHT22;4989;48.772;9.154;2023-05-07T14:28:42;16.60;99.90
9901;DHT22;4989;48.772;9.154;2023-05-07T14:33:48;16.50;99.90
9901;DHT22;4989;48.772;9.154;2023-05-07T14:38:53;16.50;99.90
9901;DHT22;4989;48.772;9.154;2023-05-07T14:44:01;16.50;99.90
9901;DHT22;4989;48.772;9.154;2023-05-07T14:49:06;16.70;99.90
9901;DHT22;4989;48.772;9.154;2023-05-07T14:54:08;16.70;99.90
9901;DHT22;4989;48.772;9.154;2023-05-07T14:59:11;16.60;99.90
9901;DHT22;4989;48.772;9.154;2023-05-07T15:04:13;16.70;99.90
9901;DHT22;4989;48.772;9.154;2023-05-07T15:09:17;17.00;99.90
9901;DHT22;4989;48.772;9.154;2023-05-07T15:14:19;17.30;99.90
9901;DHT22;4989;48.772;9.154;2023-05-07T15:19:23;18.30;99.90
9901;DHT22;4989;48.772;9.154;2023-05-07T15:24:30;19.00;99.90
9901;DHT22;4989;48.772;9.154;2023-05-07T15:29:33;19.00;98.60
9901;DHT22;4989;48.772;9.154;2023-05-07T15:34:36;18.90;98.80
9901;DHT22;4989;48.772;9.154;2023-05-07T15:39:38;19.60;98.50
9901;DHT22;4989;48.772;9.154;2023-05-07T15:44:41;20.20;97.50
9901;DHT22;4989;48.772;9.154;2023-05-07T15:49:43;20.40;96.40
9901;DHT22;4989;48.772;9.154;2023-05-07T15:54:46;20.50;97.50
9901;DHT22;4989;48.772;9.154;2023-05-07T15:59:49;20.30;96.60
9901;DHT22;4989;48.772;9.154;2023-05-07T16:04:52;20.00;97.30
9901;DHT22;4989;48.772;9.154;2023-05-07T16:09:54;20.00;96.60
9901;DHT22;4989;48.772;9.154;2023-05-07T16:14:56;19.80;97.70
9901;DHT22;4989;48.772;9.154;2023-05-07T16:19:58;20.00;97.50
9901;DHT22;4989;48.772;9.154;2023-05-07T16:25:01;20.30;96.10
9901;DHT22;4989;48.772;9.154;2023-05-07T16:30:03;20.40;95.90
9901;DHT22;4989;48.772;9.154;2023-05-07T16:35:06;20.60;95.20
9901;DHT22;4989;48.772;9.154;2023-05-07T16:40:09;20.80;94.10
9901;DHT22;4989;48.772;9.154;2023-05-07T16:45:12;20.90;94.50
9901;DHT22;4989;48.772;9.154;2023-05-07T16:50:14;20.80;94.80
9901;DHT22;4989;48.772;9.154;2023-05-07T16:55:17;20.70;96.20
9901;DHT22;4989;48.772;9.154;2023-05-07T17:00:19;20.90;95.30
9901;DHT22;4989;48.772;9.154;2023-05-07T17:05:22;20.90;94.80
9901;DHT22;4989;48.772;9.154;2023-05-07T17:10:25;21.00;93.90
9901;DHT22;4989;48.772;9.154;2023-05-07T17:15:27;21.10;93.40
9901;DHT22;4989;48.772;9.154;2023-05-07T17:20:29;21.20;93.10
9901;DHT22;4989;48.772;9.154;2023-05-07T17:25:33;21.20;93.10
9901;DHT22;4989;48.772;9.154;2023-05-07T17:30:37;21.20;93.20
9901;DHT22;4989;48.772;9.154;2023-05-07T17:35:39;21.20;93.50
9901;DHT22;4989;48.772;9.154;2023-05-07T17:40:42;21.10;93.10
9901;DHT22;4989;48.772;9.154;2023-05-07T17:45:44;21.10;93.50
9901;DHT22;4989;48.772;9.154;2023-05-07T17:50:46;20.90;94.40
9901;DHT22;4989;48.772;9.154;2023-05-07T17:55:49;20.50;95.10
9901;DHT22;4989;48.772;9.154;2023-05-07T18:00:52;20.50;95.40
9901;DHT22;4989;48.772;9.154;2023-05-07T18:05:56;20.60;95.00
9901;DHT22;4989;48.772;9.154;2023-05-07T18:10:58;20.70;94.50
9901;DHT22;4989;48.772;9.154;2023-05-07T18:16:00;20.50;95.50
9901;DHT22;4989;48.772;9.154;2023-05-07T18:21:03;20.60;94.70
9901;DHT22;4989;48.772;9.154;2023-05-07T18:26:06;20.70;95.00
9901;DHT22;4989;48.772;9.154;2023-05-07T18:31:09;20.70;94.10
9901;DHT22;4989;48.772;9.154;2023-05-07T18:36:11;20.70;94.10
9901;DHT22;4989;48.772;9.154;2023-05-07T18:41:14;20.70;94.00
9901;DHT22;4989;48.772;9.154;2023-05-07T18:46:16;20.70;93.80
9901;DHT22;4989;48.772;9.154;2023-05-07T18:51:18;20.80;93.60
9901;DHT22;4989;48.772;9.154;2023-05-07T18:56:21;20.80;93.20
9901;DHT22;4989;48.772;9.154;2023-05-07T19:01:23;20.60;93.70
9901;DHT22;4989;48.772;9.154;2023-05-07T19:06:26;20.60;93.50
9901;DHT22;4989;48.772;9.154;2023-05-07T19:11:31;20.80;93.00
9901;DHT22;4989;48.772;9.154;2023-05-07T19:16:34;20.50;94.10
9901;DHT22;4989;48.772;9.154;2023-05-07T19:21:36;20.10;94.90
9901;DHT22;4989;48.772;9.154;2023-05-07T19:26:38;20.20;94.80
9901;DHT22;4989;48.772;9.154;2023-05-07T19:31:41;20.20;94.60
9901;DHT22;4989;48.772;9.154;2023-05-07T19:36:44;20.10;94.90
9901;DHT22;4989;48.772;9.154;2023-05-07T19:41:46;19.80;95.90
9901;DHT22;4989;48.772;9.154;2023-05-07T19:46:49;19.40;97.20
9901;DHT22;4989;48.772;9.154;2023-05-07T19:51:52;19.20;98.50
9901;DHT22;4989;48.772;9.154;2023-05-07T19:56:55;18.50;99.90
9901;DHT22;4989;48.772;9.154;2023-05-07T20:02:00;18.50;99.90
9901;DHT22;4989;48.772;9.154;2023-05-07T20:07:03;18.60;99.90
9901;DHT22;4989;48.772;9.154;2023-05-07T20:12:06;19.00;99.90
9901;DHT22;4989;48.772;9.154;2023-05-07T20:17:09;19.10;99.50
9901;DHT22;4989;48.772;9.154;2023-05-07T20:22:11;19.40;98.60
9901;DHT22;4989;48.772;9.154;2023-05-07T20:27:13;19.60;98.10
9901;DHT22;4989;48.772;9.154;2023-05-07T20:32:17;19.70;97.40
9901;DHT22;4989;48.772;9.154;2023-05-07T20:37:19;19.70;97.10
9901;DHT22;4989;48.772;9.154;2023-05-07T20:42:22;19.70;96.80
9901;DHT22;4989;48.772;9.154;2023-05-07T20:47:25;20.00;96.20
9901;DHT22;4989;48.772;9.154;2023-05-07T20:52:28;20.10;95.50
9901;DHT22;4989;48.772;9.154;2023-05-07T20:57:30;20.20;95.40
9901;DHT22;4989;48.772;9.154;2023-05-07T21:02:33;20.10;95.40
9901;DHT22;4989;48.772;9.154;2023-05-07T21:07:35;20.00;95.90
9901;DHT22;4989;48.772;9.154;2023-05-07T21:12:37;19.80;96.20
9901;DHT22;4989;48.772;9.154;2023-05-07T21:17:40;19.80;96.30
9901;DHT22;4989;48.772;9.154;2023-05-07T21:22:42;19.70;96.80
9901;DHT22;4989;48.772;9.154;2023-05-07T21:27:45;18.90;98.80
9901;DHT22;4989;48.772;9.154;2023-05-07T21:32:47;18.30;99.90
9901;DHT22;4989;48.772;9.154;2023-05-07T21:37:50;18.40;99.90
9901;DHT22;4989;48.772;9.154;2023-05-07T21:42:52;18.00;99.90
9901;DHT22;4989;48.772;9.154;2023-05-07T21:47:55;18.00;99.90
9901;DHT22;4989;48.772;9.154;2023-05-07T21:52:57;18.40;99.90
9901;DHT22;4989;48.772;9.154;2023-05-07T21:57:59;18.00;99.90
9901;DHT22;4989;48.772;9.154;2023-05-07T22:03:06;18.20;99.90
9901;DHT22;4989;48.772;9.154;2023-05-07T22:08:09;18.60;99.90
9901;DHT22;4989;48.772;9.154;2023-05-07T22:13:11;18.90;99.90
9901;DHT22;4989;48.772;9.154;2023-05-07T22:18:13;19.00;99.90
9901;DHT22;4989;48.772;9.154;2023-05-07T22:23:15;19.20;99.70
9901;DHT22;4989;48.772;9.154;2023-05-07T22:28:18;19.60;98.30
9901;DHT22;4989;48.772;9.154;2023-05-07T22:33:20;19.50;98.30
9901;DHT22;4989;48.772;9.154;2023-05-07T22:38:23;19.30;98.80
9901;DHT22;4989;48.772;9.154;2023-05-07T22:43:25;19.60;98.00
9901;DHT22;4989;48.772;9.154;2023-05-07T22:48:28;19.80;97.50
9901;DHT22;4989;48.772;9.154;2023-05-07T22:53:30;19.70;97.40
9901;DHT22;4989;48.772;9.154;2023-05-07T22:58:32;19.90;96.80
9901;DHT22;4989;48.772;9.154;2023-05-07T23:03:35;19.70;97.30
9901;DHT22;4989;48.772;9.154;2023-05-07T23:08:37;19.80;96.80
9901;DHT22;4989;48.772;9.154;2023-05-07T23:13:40;19.90;96.80
9901;DHT22;4989;48.772;9.154;2023-05-07T23:18:42;19.70;97.50
9901;DHT22;4989;48.772;9.154;2023-05-07T23:23:44;19.30;98.40
9901;DHT22;4989;48.772;9.154;2023-05-07T23:28:48;19.10;99.20
9901;DHT22;4989;48.772;9.154;2023-05-07T23:33:51;19.10;99.70
9901;DHT22;4989;48.772;9.154;2023-05-07T23:38:53;19.20;99.50
9901;DHT22;4989;48.772;9.154;2023-05-07T23:43:55;19.10;99.70
9901;DHT22;4989;48.772;9.154;2023-05-07T23:48:57;19.10;99.90
9901;DHT22;4989;48.772;9.154;2023-05-07T23:53:59;19.20;99.60
9901;DHT22;4989;48.772;9.154;2023-05-07T23:59:01;19.50;98.60
